Hays, Kansas
Current Conditions -  °F | °C
As of 8:15 AM on Friday 19 Dec 2014 (Local Time) from KHYS Reporting Station
Scattered Clouds Scattered Clouds  
Wind Chill: 27°   Ceiling: Unl
Heat Index: 32°   Visibility: 3mi
Dew Point: 23°   Wind: 5mph
Humidity: 69%   Direction: 140°SE
Pressure: 30.16"   Gusts: NA
Location:  38.87°N, 99.33°W
Report Text: KHYS 191415Z AUTO 14004KT 3SM SCT016 00/M05 A3016 RMK AO1
Loading
Personal Weather Stations






























Interactive Weather Map New forecast layout! Learn more

10-Day Weather Forecast

Advertisements
Track Severe Weather on mobile